createdAt,value
2022-11-05T00:01:23.193Z,97719.56
2022-11-05T00:04:43.649Z,97722.94
2022-11-05T00:08:08.183Z,97731.91
2022-11-05T00:11:17.768Z,97732.56
2022-11-05T00:14:38.829Z,97735.19
2022-11-05T00:17:42.281Z,97742.16
2022-11-05T00:20:45.446Z,97742.47
2022-11-05T00:24:06.184Z,97745.59
2022-11-05T00:27:11.280Z,97748.53
2022-11-05T00:30:16.924Z,97747.53
2022-11-05T00:33:20.327Z,97743.91
2022-11-05T00:36:23.573Z,97747.53
2022-11-05T00:39:26.777Z,97744.19
2022-11-05T00:42:48.648Z,97757.00
2022-11-05T00:45:51.799Z,97753.06
2022-11-05T00:49:12.451Z,97754.59
2022-11-05T00:52:35.463Z,97755.13
2022-11-05T00:55:40.216Z,97763.97
2022-11-05T00:58:45.444Z,97763.97
2022-11-05T01:01:48.631Z,97769.31
2022-11-05T01:04:51.903Z,97775.50
2022-11-05T01:07:55.373Z,97784.03
2022-11-05T01:10:59.901Z,97766.88
2022-11-05T01:14:06.522Z,97763.63
2022-11-05T01:17:09.568Z,97779.88
2022-11-05T01:20:13.227Z,97777.19
2022-11-05T01:23:16.800Z,97789.25
2022-11-05T01:26:20.211Z,97795.13
2022-11-05T01:29:24.703Z,97797.69
2022-11-05T01:32:27.846Z,97796.72
2022-11-05T01:35:31.201Z,97800.13
2022-11-05T01:38:34.442Z,97796.72
2022-11-05T01:41:37.676Z,97793.38
2022-11-05T01:44:54.308Z,97802.56
2022-11-05T01:48:05.406Z,97810.22
2022-11-05T01:51:12.457Z,97811.25
2022-11-05T01:54:18.614Z,97823.41
2022-11-05T01:57:22.137Z,97816.53
2022-11-05T02:00:27.940Z,97823.34
2022-11-05T02:03:32.168Z,97826.59
2022-11-05T02:06:45.888Z,97828.34
2022-11-05T02:09:54.517Z,97829.31
2022-11-05T02:12:57.970Z,97836.19
2022-11-05T02:16:09.372Z,97835.25
2022-11-05T02:19:36.475Z,97829.56
2022-11-05T02:23:08.174Z,97842.84
2022-11-05T02:26:51.495Z,97841.31
2022-11-05T02:30:08.388Z,97839.78
2022-11-05T02:33:28.000Z,97831.63
2022-11-05T02:36:45.542Z,97838.41
2022-11-05T02:40:02.314Z,97848.16
2022-11-05T02:43:15.305Z,97837.84
2022-11-05T02:46:30.506Z,97848.56
2022-11-05T02:49:42.292Z,97852.75
2022-11-05T02:52:54.745Z,97828.28
2022-11-05T02:56:02.345Z,97853.13
2022-11-05T02:59:05.464Z,97861.88
2022-11-05T03:02:10.932Z,97863.78
2022-11-05T03:05:15.558Z,97854.91
2022-11-05T03:08:30.132Z,97861.28
2022-11-05T03:11:38.894Z,97856.13
2022-11-05T03:14:46.556Z,97851.09
2022-11-05T03:17:59.643Z,97848.63
2022-11-05T03:21:11.388Z,97857.22
2022-11-05T03:24:18.644Z,97859.72
2022-11-05T03:27:27.162Z,97857.44
2022-11-05T03:30:32.690Z,97863.56
2022-11-05T03:33:39.663Z,97873.13
2022-11-05T03:36:48.105Z,97872.31
2022-11-05T03:39:55.861Z,97879.13
2022-11-05T03:43:00.383Z,97873.88
2022-11-05T03:46:07.262Z,97881.63
2022-11-05T03:49:16.602Z,97883.44
2022-11-05T03:52:25.324Z,97876.56
2022-11-05T03:55:34.574Z,97887.78
2022-11-05T03:58:41.876Z,97886.00
2022-11-05T04:01:45.607Z,97879.03
2022-11-05T04:04:49.087Z,97877.47
2022-11-05T04:08:14.275Z,97893.75
2022-11-05T04:11:35.292Z,97890.28
2022-11-05T04:14:39.425Z,97884.41
2022-11-05T04:17:42.721Z,97891.25
2022-11-05T04:21:03.446Z,97893.06
2022-11-05T04:24:11.506Z,97899.13
2022-11-05T04:27:14.419Z,97898.22
2022-11-05T04:34:16.302Z,97903.72
2022-11-05T04:37:19.485Z,97900.47
2022-11-05T04:40:22.669Z,97902.38
2022-11-05T04:43:25.897Z,97911.28
2022-11-05T04:46:29.011Z,97907.88
2022-11-05T04:49:33.534Z,97916.94
2022-11-05T04:52:36.622Z,97927.53
2022-11-05T04:55:39.723Z,97934.38
2022-11-05T04:58:43.531Z,97934.81
2022-11-05T05:01:46.654Z,97949.41
2022-11-05T05:04:51.130Z,97956.91
2022-11-05T05:07:54.472Z,97968.88
2022-11-05T05:10:57.689Z,97961.91
2022-11-05T05:14:00.774Z,97960.44
2022-11-05T05:17:04.073Z,97974.75
2022-11-05T05:20:26.888Z,97972.94
2022-11-05T05:23:30.185Z,97983.06
2022-11-05T05:26:33.474Z,97992.34
2022-11-05T05:29:36.599Z,97963.59
2022-11-05T05:32:39.693Z,97985.16
2022-11-05T05:35:44.358Z,97963.13
2022-11-05T05:38:47.486Z,97990.94
2022-11-05T05:41:50.573Z,97999.59
2022-11-05T05:44:53.751Z,98005.53
2022-11-05T05:47:57.200Z,98015.84
2022-11-05T05:51:06.856Z,98017.53
2022-11-05T05:54:11.709Z,98015.00
2022-11-05T05:57:15.018Z,98014.88
2022-11-05T06:00:18.518Z,98020.00
2022-11-05T06:03:21.866Z,98019.28
2022-11-05T06:06:26.341Z,98019.34
2022-11-05T06:09:29.724Z,98022.81
2022-11-05T06:12:32.895Z,98017.75
2022-11-05T06:15:36.287Z,98035.34
2022-11-05T06:18:39.692Z,98035.41
2022-11-05T06:21:44.221Z,98041.75
2022-11-05T06:24:47.359Z,98047.75
2022-11-05T06:27:50.611Z,98049.44
2022-11-05T06:30:53.990Z,98050.28
2022-11-05T06:34:16.930Z,98050.13
2022-11-05T06:37:21.323Z,98005.50
2022-11-05T06:40:24.940Z,98062.00
2022-11-05T06:43:29.099Z,98059.47
2022-11-05T06:46:32.515Z,98062.50
2022-11-05T06:49:35.577Z,98072.72
2022-11-05T06:52:41.388Z,98080.41
2022-11-05T06:55:47.801Z,98063.63
2022-11-05T06:58:50.908Z,98087.03
2022-11-05T07:01:54.004Z,98090.34
2022-11-05T07:04:57.158Z,98098.94
2022-11-05T07:08:01.608Z,98034.00
2022-11-05T07:11:05.168Z,98106.53
2022-11-05T07:14:08.614Z,98105.72
2022-11-05T07:17:11.693Z,98115.13
2022-11-05T07:20:14.873Z,98122.09
2022-11-05T07:23:19.316Z,98121.94
2022-11-05T07:26:22.590Z,98126.16
2022-11-05T07:29:25.704Z,98127.59
2022-11-05T07:32:28.938Z,98130.91
2022-11-05T07:35:32.241Z,98133.78
2022-11-05T07:38:36.821Z,98132.66
2022-11-05T07:41:40.039Z,98135.81
2022-11-05T07:44:43.169Z,98144.03
2022-11-05T07:47:48.100Z,98145.66
2022-11-05T07:50:52.705Z,98154.25
2022-11-05T07:53:57.127Z,98160.06
2022-11-05T07:57:01.336Z,98160.97
2022-11-05T08:00:05.056Z,98164.19
2022-11-05T08:03:18.330Z,98167.66
2022-11-05T08:06:21.826Z,98164.91
2022-11-05T08:09:26.378Z,98158.81
2022-11-05T08:12:29.448Z,98159.84
2022-11-05T08:15:33.345Z,98156.31
2022-11-05T08:18:36.718Z,98161.41
2022-11-05T08:21:39.816Z,98161.34
2022-11-05T08:24:44.517Z,98168.31
2022-11-05T08:27:47.748Z,98168.09
2022-11-05T08:30:51.990Z,98163.59
2022-11-05T08:33:59.697Z,98170.94
2022-11-05T08:37:05.357Z,98164.66
2022-11-05T08:40:10.909Z,98161.28
2022-11-05T08:43:15.592Z,98163.31
2022-11-05T08:46:18.687Z,98174.09
2022-11-05T08:49:21.846Z,98179.34
2022-11-05T08:52:25.098Z,98168.28
2022-11-05T08:55:29.942Z,98171.28
2022-11-05T08:58:33.390Z,98171.88
2022-11-05T09:01:36.580Z,98192.13
2022-11-05T09:04:39.712Z,98177.19
2022-11-05T09:07:43.085Z,98176.22
2022-11-05T09:10:49.701Z,98178.22
2022-11-05T09:13:53.066Z,98182.03
2022-11-05T09:16:56.162Z,98177.91
2022-11-05T09:19:59.487Z,98182.41
2022-11-05T09:23:02.657Z,98180.88
2022-11-05T09:26:07.375Z,98177.53
2022-11-05T09:29:14.380Z,98175.69
2022-11-05T09:32:18.492Z,98182.56
2022-11-05T09:35:21.590Z,98169.63
2022-11-05T09:38:25.030Z,98176.88
2022-11-05T09:41:33.535Z,98187.06
2022-11-05T09:44:43.062Z,98198.72
2022-11-05T09:47:50.576Z,98204.56
2022-11-05T09:50:54.775Z,98206.94
2022-11-05T09:53:59.880Z,98208.69
2022-11-05T09:57:07.759Z,98199.22
2022-11-05T10:00:16.830Z,98209.44
2022-11-05T10:03:23.195Z,98219.50
2022-11-05T10:06:28.742Z,98214.31
2022-11-05T10:09:36.583Z,98216.22
2022-11-05T10:12:47.550Z,98204.16
2022-11-05T10:15:58.553Z,98202.72
2022-11-05T10:19:09.712Z,98233.94
2022-11-05T10:22:16.226Z,98236.06
2022-11-05T10:25:21.247Z,98245.50
2022-11-05T10:28:27.927Z,98243.00
2022-11-05T10:34:17.778Z,98244.03
2022-11-05T10:37:24.782Z,98237.38
2022-11-05T10:40:37.113Z,98243.38
2022-11-05T10:43:46.300Z,98242.94
2022-11-05T10:46:59.072Z,98215.50
2022-11-05T10:50:09.338Z,98246.38
2022-11-05T10:53:16.132Z,98237.91
2022-11-05T10:56:31.291Z,98227.78
2022-11-05T10:59:34.786Z,98212.19
2022-11-05T11:02:38.116Z,98229.34
2022-11-05T11:05:42.912Z,98222.22
2022-11-05T11:08:48.643Z,98205.06
2022-11-05T11:11:59.896Z,98242.72
2022-11-05T11:15:04.947Z,98231.19
2022-11-05T11:18:26.595Z,98230.06
2022-11-05T11:21:33.061Z,98238.59
2022-11-05T11:24:40.089Z,98235.75
2022-11-05T11:27:43.483Z,98187.00
2022-11-05T11:30:52.924Z,98249.88
2022-11-05T11:34:01.097Z,98246.94
2022-11-05T11:37:08.707Z,98229.75
2022-11-05T11:40:17.273Z,98254.06
2022-11-05T11:43:28.950Z,98248.66
2022-11-05T11:46:34.835Z,98247.22
2022-11-05T11:49:45.783Z,98246.72
2022-11-05T11:52:50.390Z,98253.16
2022-11-05T11:56:03.267Z,98239.72
2022-11-05T11:59:17.825Z,98243.16
2022-11-05T12:02:51.608Z,98245.88
2022-11-05T12:06:04.315Z,98250.00
2022-11-05T12:09:17.792Z,98256.56
2022-11-05T12:12:27.197Z,98246.94
2022-11-05T12:15:45.590Z,98253.47
2022-11-05T12:19:00.764Z,98262.31
2022-11-05T12:22:17.693Z,98265.47
2022-11-05T12:25:30.109Z,98268.63
2022-11-05T12:29:17.418Z,98260.84
2022-11-05T12:32:41.643Z,98263.75
2022-11-05T12:36:03.556Z,98262.38
2022-11-05T12:39:38.726Z,98263.56
2022-11-05T12:42:57.195Z,98269.31
2022-11-05T12:46:03.478Z,98267.50
2022-11-05T12:49:35.677Z,98269.72
2022-11-05T12:53:17.258Z,98273.44
2022-11-05T12:56:27.712Z,98273.59
2022-11-05T12:59:37.707Z,98284.75
2022-11-05T13:02:50.802Z,98284.75
2022-11-05T13:06:04.519Z,98293.00
2022-11-05T13:09:14.752Z,98282.34
2022-11-05T13:12:22.204Z,98286.44
2022-11-05T13:15:30.725Z,98281.97
2022-11-05T13:18:42.671Z,98286.66
2022-11-05T13:21:51.647Z,98280.72
2022-11-05T13:24:59.454Z,98282.38
2022-11-05T13:28:11.270Z,98266.72
2022-11-05T13:31:21.111Z,98274.13
2022-11-05T13:34:24.859Z,98240.31
2022-11-05T13:37:49.871Z,98281.44
2022-11-05T13:41:13.446Z,98258.47
2022-11-05T13:44:41.626Z,98260.78
2022-11-05T13:48:02.969Z,98211.72
2022-11-05T13:51:33.576Z,98267.81
2022-11-05T13:55:12.500Z,98279.13
2022-11-05T13:58:50.962Z,98272.56
2022-11-05T14:01:57.559Z,98266.69
2022-11-05T14:05:03.523Z,98282.81
2022-11-05T14:08:12.182Z,98287.53
2022-11-05T14:11:22.361Z,98286.56
2022-11-05T14:14:29.029Z,98287.50
2022-11-05T14:17:36.564Z,98281.63
2022-11-05T14:20:47.473Z,98298.75
2022-11-05T14:23:52.886Z,98286.22
2022-11-05T14:27:34.325Z,98293.16
2022-11-05T14:30:44.303Z,98288.25
2022-11-05T14:33:57.107Z,98239.69
2022-11-05T14:37:23.448Z,98286.66
2022-11-05T14:40:33.435Z,98279.91
2022-11-05T14:43:36.973Z,98295.09
2022-11-05T14:46:43.010Z,98275.09
2022-11-05T14:49:54.117Z,98302.94
2022-11-05T14:53:03.169Z,98305.53
2022-11-05T14:56:09.884Z,98185.97
2022-11-05T15:00:01.087Z,98178.38
2022-11-05T15:03:25.995Z,98309.97
2022-11-05T15:06:32.554Z,98321.38
2022-11-05T15:09:41.571Z,98334.22
2022-11-05T15:12:48.823Z,98165.13
2022-11-05T15:15:53.567Z,98295.97
2022-11-05T15:18:58.218Z,98331.97
2022-11-05T15:22:06.607Z,98346.31
2022-11-05T15:25:19.595Z,98216.53
2022-11-05T15:28:31.593Z,98272.19
2022-11-05T15:31:37.390Z,98202.56
2022-11-05T15:34:40.772Z,98191.31
2022-11-05T15:37:53.330Z,98361.06
2022-11-05T15:41:03.536Z,98368.94
2022-11-05T15:44:23.998Z,98365.19
2022-11-05T15:47:28.886Z,98154.78
2022-11-05T15:50:32.340Z,98386.69
2022-11-05T15:54:28.567Z,98259.13
2022-11-05T15:57:25.011Z,98231.75
2022-11-05T16:00:30.422Z,98371.72
2022-11-05T16:03:39.286Z,98369.78
2022-11-05T16:06:45.567Z,98268.97
2022-11-05T16:09:54.220Z,98221.72
2022-11-05T16:12:58.979Z,98375.94
2022-11-05T16:16:05.725Z,98271.63
2022-11-05T16:19:40.132Z,98271.34
2022-11-05T16:22:47.482Z,98301.06
2022-11-05T16:25:51.613Z,98369.19
2022-11-05T16:28:57.364Z,98404.06
2022-11-05T16:34:27.955Z,98406.88
2022-11-05T16:37:39.711Z,98304.53
2022-11-05T16:40:43.119Z,98339.16
2022-11-05T16:43:53.638Z,98426.00
2022-11-05T16:47:32.852Z,98437.31
2022-11-05T16:50:38.025Z,98437.09
2022-11-05T16:53:41.817Z,98398.16
2022-11-05T16:56:47.410Z,98384.03
2022-11-05T16:59:51.067Z,98443.81
2022-11-05T17:02:54.820Z,98391.59
2022-11-05T17:05:59.464Z,98324.53
2022-11-05T17:09:03.172Z,98317.97
2022-11-05T17:12:07.015Z,98369.78
2022-11-05T17:15:18.448Z,98460.22
2022-11-05T17:18:22.008Z,98458.94
2022-11-05T17:21:28.781Z,98461.66
2022-11-05T17:24:32.180Z,98463.59
2022-11-05T17:27:35.566Z,98475.13
2022-11-05T17:30:41.645Z,98468.53
2022-11-05T17:33:45.365Z,98473.44
2022-11-05T17:36:50.036Z,98445.69
2022-11-05T17:39:54.064Z,98461.47
2022-11-05T17:42:57.289Z,98467.59
2022-11-05T17:46:04.501Z,98470.16
2022-11-05T17:49:08.237Z,98472.75
2022-11-05T17:52:12.937Z,98479.78
2022-11-05T17:55:19.151Z,98454.00
2022-11-05T17:58:22.762Z,98473.72
2022-11-05T18:01:28.749Z,98476.16
2022-11-05T18:04:32.581Z,98477.06
2022-11-05T18:07:37.380Z,98488.75
2022-11-05T18:10:41.519Z,98465.94
2022-11-05T18:13:44.883Z,98476.22
2022-11-05T18:16:48.159Z,98445.66
2022-11-05T18:19:51.553Z,98435.47
2022-11-05T18:22:56.189Z,98456.53
2022-11-05T18:25:59.472Z,98481.34
2022-11-05T18:29:03.281Z,98446.25
2022-11-05T18:32:07.532Z,98481.13
2022-11-05T18:35:11.070Z,98494.25
2022-11-05T18:38:16.068Z,98482.88
2022-11-05T18:41:21.629Z,98466.75
2022-11-05T18:44:24.962Z,98372.94
2022-11-05T18:47:28.270Z,98499.31
2022-11-05T18:50:31.771Z,98500.03
2022-11-05T18:53:36.782Z,98510.59
2022-11-05T18:56:45.317Z,98351.72
2022-11-05T18:59:48.901Z,98388.50
2022-11-05T19:02:52.279Z,98519.38
2022-11-05T19:05:55.531Z,98515.25
2022-11-05T19:09:00.103Z,98501.63
2022-11-05T19:12:03.740Z,98510.44
2022-11-05T19:15:08.325Z,98509.75
2022-11-05T19:18:12.126Z,98518.47
2022-11-05T19:21:17.498Z,98502.22
2022-11-05T19:24:22.228Z,98517.13
2022-11-05T19:27:25.828Z,98428.53
2022-11-05T19:30:29.101Z,98399.59
2022-11-05T19:33:32.679Z,98427.03
2022-11-05T19:36:36.037Z,98526.31
2022-11-05T19:39:41.269Z,98521.97
2022-11-05T19:42:44.536Z,98505.06
2022-11-05T19:45:47.905Z,98525.34
2022-11-05T19:48:51.591Z,98508.88
2022-11-05T19:51:54.928Z,98529.47
2022-11-05T19:54:59.585Z,98525.31
2022-11-05T19:58:03.049Z,98538.50
2022-11-05T20:01:07.117Z,98539.31
2022-11-05T20:04:11.964Z,98538.66
2022-11-05T20:07:15.336Z,98536.91
2022-11-05T20:10:20.165Z,98542.94
2022-11-05T20:13:24.341Z,98557.31
2022-11-05T20:16:32.180Z,98503.56
2022-11-05T20:19:35.572Z,98559.69
2022-11-05T20:22:38.845Z,98420.56
2022-11-05T20:25:43.655Z,98566.75
2022-11-05T20:28:47.078Z,98568.31
2022-11-05T20:31:50.889Z,98517.13
2022-11-05T20:34:54.753Z,98471.25
2022-11-05T20:37:58.000Z,98531.34
2022-11-05T20:41:07.031Z,98507.59
2022-11-05T20:44:10.809Z,98554.06
2022-11-05T20:47:14.849Z,98577.63
2022-11-05T20:50:18.329Z,98571.94
2022-11-05T20:53:22.283Z,98539.72
2022-11-05T20:56:29.384Z,98561.53
2022-11-05T20:59:32.711Z,98573.16
2022-11-05T21:02:36.367Z,98551.53
2022-11-05T21:05:39.905Z,98539.69
2022-11-05T21:08:43.882Z,98573.34
2022-11-05T21:12:06.490Z,98561.72
2022-11-05T21:15:10.789Z,98574.19
2022-11-05T21:18:14.211Z,98585.66
2022-11-05T21:21:19.673Z,98582.06
2022-11-05T21:24:23.821Z,98585.69
2022-11-05T21:27:28.725Z,98555.28
2022-11-05T21:30:31.972Z,98586.53
2022-11-05T21:33:35.498Z,98585.44
2022-11-05T21:36:39.057Z,98590.03
2022-11-05T21:39:42.411Z,98586.25
2022-11-05T21:42:47.536Z,98584.97
2022-11-05T21:45:50.907Z,98585.19
2022-11-05T21:48:54.417Z,98437.22
2022-11-05T21:52:15.597Z,98584.09
2022-11-05T21:55:35.662Z,98580.28
2022-11-05T21:58:57.609Z,98582.94
2022-11-05T22:02:02.465Z,98490.00
2022-11-05T22:05:07.462Z,98549.66
2022-11-05T22:08:11.581Z,98569.97
2022-11-05T22:11:15.142Z,98554.25
2022-11-05T22:14:20.227Z,98561.78
2022-11-05T22:17:23.914Z,98449.53
2022-11-05T22:20:27.274Z,98533.56
2022-11-05T22:23:30.954Z,98577.53
2022-11-05T22:26:35.346Z,98579.06
2022-11-05T22:29:40.154Z,98582.31
2022-11-05T22:34:15.247Z,98583.53
2022-11-05T22:37:18.528Z,98588.53
2022-11-05T22:40:23.966Z,98591.19
2022-11-05T22:43:27.372Z,98583.06
2022-11-05T22:46:31.276Z,98580.56
2022-11-05T22:49:35.999Z,98574.94
2022-11-05T22:52:39.120Z,98574.38
2022-11-05T22:55:42.293Z,98575.31
2022-11-05T22:58:46.024Z,98570.16
2022-11-05T23:01:49.399Z,98567.25
2022-11-05T23:04:54.093Z,98573.09
2022-11-05T23:08:15.223Z,98571.75
2022-11-05T23:11:39.122Z,98569.25
2022-11-05T23:14:42.242Z,98546.84
2022-11-05T23:18:02.958Z,98564.34
2022-11-05T23:21:25.041Z,98557.00
2022-11-05T23:24:28.130Z,98558.38
2022-11-05T23:27:32.606Z,98556.91
2022-11-05T23:30:35.716Z,98561.94
2022-11-05T23:33:37.862Z,98561.00
2022-11-05T23:36:59.897Z,98562.81
2022-11-05T23:40:03.689Z,98555.47
2022-11-05T23:43:24.365Z,98554.25
2022-11-05T23:46:44.745Z,98554.41
2022-11-05T23:49:47.922Z,98554.75
2022-11-05T23:52:53.411Z,98538.69
2022-11-05T23:56:01.311Z,98548.06
2022-11-05T23:59:05.447Z,98548.56
